Time;durP1;ratioP1;P1;durP2;ratioP2;P2;SDS_P1;SDS_P2;PMS_P1;PMS_P2;Temp;Humidity;BMP_temperature;BMP_pressure;BME280_temperature;BME280_humidity;BME280_pressure;Samples;Min_cycle;Max_cycle;Signal;HPM_P1;HPM_P2
2024/01/26 00:00:40;;;;;;;0.73;0.70;;;21.60;39.50;;;;;;5097067;27;20043;-78
2024/01/26 00:03:06;;;;;;;0.75;0.70;;;21.60;39.50;;;;;;5113978;27;20035;-78
2024/01/26 00:05:33;;;;;;;1.10;1.00;;;21.70;39.60;;;;;;5133471;27;20032;-78
2024/01/26 00:07:59;;;;;;;0.73;0.73;;;21.60;39.60;;;;;;5133374;27;20059;-78
2024/01/26 00:10:25;;;;;;;0.60;0.60;;;21.60;39.60;;;;;;5115218;27;20070;-78
2024/01/26 00:12:51;;;;;;;0.85;0.82;;;21.60;39.60;;;;;;5112778;28;20119;-78
2024/01/26 00:15:17;;;;;;;0.70;0.70;;;21.50;39.60;;;;;;5069413;28;20044;-78
2024/01/26 00:17:44;;;;;;;2.10;0.80;;;21.60;39.60;;;;;;5069861;28;20065;-78
2024/01/26 00:20:10;;;;;;;0.80;0.68;;;21.50;39.70;;;;;;5069618;28;20052;-78
2024/01/26 00:22:37;;;;;;;1.15;1.00;;;21.70;39.80;;;;;;5069495;28;20586;-78
2024/01/26 00:25:03;;;;;;;1.10;1.00;;;21.50;39.70;;;;;;5052617;28;20496;-78
2024/01/26 00:27:29;;;;;;;1.05;0.90;;;21.50;39.70;;;;;;5069205;28;20111;-78
2024/01/26 00:29:55;;;;;;;0.90;0.90;;;21.60;39.70;;;;;;5069520;28;20831;-78
2024/01/26 00:32:21;;;;;;;1.25;0.75;;;21.50;39.70;;;;;;5069439;28;20562;-78
2024/01/26 00:34:47;;;;;;;1.02;0.90;;;21.70;39.70;;;;;;5052192;28;20041;-78
2024/01/26 00:37:13;;;;;;;1.00;0.88;;;21.50;39.60;;;;;;5019037;28;20186;-78
2024/01/26 00:39:39;;;;;;;1.63;0.90;;;21.60;39.70;;;;;;5068818;28;20545;-77
2024/01/26 00:42:06;;;;;;;1.08;0.93;;;21.60;39.70;;;;;;5069319;28;20131;-77
2024/01/26 00:44:32;;;;;;;1.88;0.88;;;21.60;39.60;;;;;;5069446;28;20037;-78
2024/01/26 00:46:58;;;;;;;0.70;0.70;;;21.60;39.70;;;;;;5102612;28;20044;-77
2024/01/26 00:49:24;;;;;;;0.68;0.68;;;21.60;39.60;;;;;;5111890;28;20045;-78
2024/01/26 00:51:50;;;;;;;0.80;0.80;;;21.60;39.60;;;;;;5093845;28;20061;-78
2024/01/26 00:54:16;;;;;;;0.70;0.70;;;21.50;39.60;;;;;;5093588;28;20031;-78
2024/01/26 00:56:43;;;;;;;1.23;0.80;;;21.70;39.70;;;;;;5089055;28;20094;-77
2024/01/26 00:59:09;;;;;;;0.70;0.70;;;21.50;39.70;;;;;;5071936;28;20405;-78
2024/01/26 01:01:35;;;;;;;1.45;0.82;;;21.60;39.70;;;;;;5071995;28;20066;-78
2024/01/26 01:04:01;;;;;;;0.68;0.68;;;21.50;39.60;;;;;;5089341;28;20089;-77
2024/01/26 01:06:28;;;;;;;1.23;1.05;;;21.60;39.60;;;;;;5089018;28;20036;-77
2024/01/26 01:08:54;;;;;;;1.25;0.82;;;21.40;39.50;;;;;;5088859;28;20032;-77
2024/01/26 01:11:21;;;;;;;1.05;0.95;;;21.50;39.60;;;;;;5073121;28;20143;-78
2024/01/26 01:13:47;;;;;;;0.68;0.68;;;21.50;39.60;;;;;;5089078;28;20036;-78
2024/01/26 01:16:13;;;;;;;0.98;0.90;;;21.50;39.70;;;;;;5088958;28;20119;-77
2024/01/26 01:18:39;;;;;;;0.70;0.70;;;21.50;39.70;;;;;;5089024;28;20036;-78
2024/01/26 01:21:06;;;;;;;0.80;0.80;;;21.70;39.80;;;;;;5088860;28;20044;-78
2024/01/26 01:23:32;;;;;;;0.80;0.80;;;21.50;39.70;;;;;;5088876;28;20626;-77
2024/01/26 01:25:58;;;;;;;1.00;0.90;;;21.60;39.70;;;;;;5089008;28;20078;-78
2024/01/26 01:28:24;;;;;;;0.82;0.82;;;21.50;39.70;;;;;;5088546;28;20105;-78
2024/01/26 01:30:50;;;;;;;1.30;0.90;;;21.60;39.70;;;;;;5089048;28;20476;-78
2024/01/26 01:33:16;;;;;;;1.50;1.05;;;21.70;39.80;;;;;;5072304;28;20093;-78
2024/01/26 01:35:43;;;;;;;0.88;0.82;;;21.70;39.80;;;;;;5089960;28;20043;-78
2024/01/26 01:38:09;;;;;;;1.05;0.70;;;21.50;39.70;;;;;;5091211;28;20028;-78
2024/01/26 01:40:35;;;;;;;0.82;0.75;;;21.60;39.70;;;;;;5091190;28;20029;-78
2024/01/26 01:43:01;;;;;;;0.90;0.77;;;21.60;39.70;;;;;;5091241;28;20136;-78
2024/01/26 01:45:27;;;;;;;0.70;0.70;;;21.60;39.60;;;;;;5091289;28;20032;-78
2024/01/26 01:47:54;;;;;;;0.90;0.90;;;21.80;39.70;;;;;;5089876;28;20048;-78
2024/01/26 01:50:20;;;;;;;1.20;1.10;;;21.60;39.60;;;;;;5091232;28;20067;-77
2024/01/26 01:52:48;;;;;;;1.10;1.00;;;21.60;39.60;;;;;;5091198;28;20480;-78
2024/01/26 01:55:15;;;;;;;1.05;1.02;;;21.50;39.60;;;;;;5090932;28;20492;-78
2024/01/26 01:57:44;;;;;;;1.55;0.93;;;21.50;39.60;;;;;;5089764;28;20130;-77
2024/01/26 02:00:17;;;;;;;0.90;0.90;;;21.60;39.60;;;;;;5122794;27;20040;-78
2024/01/26 02:02:45;;;;;;;1.10;1.00;;;21.50;39.60;;;;;;5091074;28;20547;-78
2024/01/26 02:05:13;;;;;;;2.33;1.10;;;21.70;39.70;;;;;;5089739;28;20074;-78
2024/01/26 02:07:39;;;;;;;1.27;0.73;;;21.60;39.60;;;;;;5091204;28;20043;-79
2024/01/26 02:10:12;;;;;;;1.10;1.00;;;21.50;39.70;;;;;;5090859;28;20032;-79
2024/01/26 02:12:38;;;;;;;0.82;0.82;;;21.40;39.60;;;;;;5092778;28;20180;-78
2024/01/26 02:15:07;;;;;;;1.83;1.00;;;21.50;39.70;;;;;;5093775;28;20047;-77
2024/01/26 02:17:35;;;;;;;0.90;0.90;;;21.50;39.80;;;;;;5094392;28;20050;-78
2024/01/26 02:20:03;;;;;;;1.17;0.93;;;21.60;39.80;;;;;;5093290;28;20046;-78
2024/01/26 02:22:30;;;;;;;1.08;1.02;;;21.50;39.80;;;;;;5094680;28;20028;-78
2024/01/26 02:24:56;;;;;;;1.10;0.90;;;21.40;39.70;;;;;;5094491;28;20040;-74
2024/01/26 02:27:23;;;;;;;0.98;0.90;;;21.50;39.70;;;;;;5095820;28;20039;-79
2024/01/26 02:29:49;;;;;;;1.15;0.90;;;21.60;39.70;;;;;;5096311;28;20471;-77
2024/01/26 02:32:15;;;;;;;1.25;1.10;;;21.70;39.80;;;;;;5096551;28;20047;-78
2024/01/26 02:34:42;;;;;;;1.10;0.88;;;21.40;39.60;;;;;;5096198;28;20031;-78
2024/01/26 02:37:11;;;;;;;0.90;0.90;;;21.60;39.60;;;;;;5096319;28;20071;-78
2024/01/26 02:39:37;;;;;;;1.60;1.05;;;21.60;39.60;;;;;;5114835;28;20027;-78
2024/01/26 02:42:04;;;;;;;1.30;0.95;;;21.60;39.60;;;;;;5114537;28;20096;-77
2024/01/26 02:44:32;;;;;;;1.08;0.80;;;21.60;39.60;;;;;;5114969;28;20038;-77
2024/01/26 02:46:59;;;;;;;1.20;1.10;;;21.60;39.60;;;;;;5096882;28;20047;-78
2024/01/26 02:49:25;;;;;;;1.08;0.98;;;21.60;39.60;;;;;;5114516;28;20150;-78
2024/01/26 02:51:51;;;;;;;1.75;1.17;;;21.60;39.60;;;;;;5114300;28;20031;-77
2024/01/26 02:54:18;;;;;;;1.30;1.00;;;21.50;39.60;;;;;;5114414;28;20422;-78
2024/01/26 02:56:44;;;;;;;1.90;1.17;;;21.60;39.60;;;;;;5079215;28;20402;-78
2024/01/26 02:59:10;;;;;;;2.42;1.23;;;21.50;39.60;;;;;;5114056;28;20031;-77
2024/01/26 03:01:36;;;;;;;3.67;1.35;;;21.50;39.60;;;;;;5114494;28;20042;-78
2024/01/26 03:04:02;;;;;;;1.20;1.10;;;21.70;39.70;;;;;;5114322;28;20076;-78
2024/01/26 03:06:28;;;;;;;1.02;1.02;;;21.50;39.60;;;;;;5114242;28;20063;-78
2024/01/26 03:08:54;;;;;;;1.38;1.17;;;21.40;39.60;;;;;;5113868;28;20039;-78
2024/01/26 03:11:22;;;;;;;3.33;1.20;;;21.50;39.70;;;;;;5114247;28;20032;-77
2024/01/26 03:13:48;;;;;;;1.33;1.00;;;21.40;39.60;;;;;;5113683;28;20475;-78
2024/01/26 03:16:14;;;;;;;1.45;1.13;;;21.40;39.60;;;;;;5113980;28;20043;-78
2024/01/26 03:18:40;;;;;;;1.42;1.23;;;21.50;39.70;;;;;;5095803;28;20062;-78
2024/01/26 03:21:06;;;;;;;2.75;1.38;;;21.40;39.60;;;;;;5114530;27;20032;-78
2024/01/26 03:23:32;;;;;;;1.13;0.98;;;21.50;39.70;;;;;;5133983;27;20035;-77
2024/01/26 03:25:58;;;;;;;1.35;1.25;;;21.50;39.60;;;;;;5134217;27;20084;-77
2024/01/26 03:28:24;;;;;;;2.08;1.20;;;21.60;39.60;;;;;;5133910;27;20058;-78
2024/01/26 03:30:50;;;;;;;1.33;1.15;;;21.50;39.60;;;;;;5134416;27;20027;-78
2024/01/26 03:33:17;;;;;;;0.77;0.77;;;21.50;39.60;;;;;;5115957;27;20264;-78
2024/01/26 03:35:43;;;;;;;2.47;1.08;;;21.70;39.60;;;;;;5098713;27;20043;-77
2024/01/26 03:38:09;;;;;;;1.63;1.33;;;21.50;39.50;;;;;;5133944;27;20722;-78
2024/01/26 03:40:35;;;;;;;1.92;0.90;;;21.70;39.60;;;;;;5131567;27;20169;-77
2024/01/26 03:43:01;;;;;;;1.27;1.00;;;21.50;39.40;;;;;;5131385;27;20154;-77
2024/01/26 03:45:27;;;;;;;1.13;0.80;;;21.70;39.40;;;;;;5131376;27;20080;-78
2024/01/26 03:47:54;;;;;;;1.60;0.95;;;21.60;39.30;;;;;;5131432;27;20031;-78
2024/01/26 03:50:20;;;;;;;0.90;0.90;;;21.60;39.30;;;;;;5131437;27;20522;-78
2024/01/26 03:52:46;;;;;;;0.60;0.60;;;21.60;39.30;;;;;;5131043;27;20863;-77
2024/01/26 03:55:12;;;;;;;2.25;0.93;;;21.60;39.20;;;;;;5130987;27;20074;-78
2024/01/26 03:57:38;;;;;;;1.85;1.27;;;21.50;39.20;;;;;;5130913;27;20133;-78
2024/01/26 04:00:05;;;;;;;1.02;1.02;;;21.60;39.30;;;;;;5130903;27;20073;-77
2024/01/26 04:02:38;;;;;;;1.15;1.02;;;21.50;39.20;;;;;;5131041;27;20039;-78
2024/01/26 04:05:05;;;;;;;0.90;0.90;;;21.60;39.20;;;;;;5131035;27;20030;-77
2024/01/26 04:07:31;;;;;;;1.15;1.05;;;21.50;39.20;;;;;;5126823;27;20043;-77
2024/01/26 04:09:57;;;;;;;1.63;1.08;;;21.50;39.20;;;;;;5110461;28;20046;-78
2024/01/26 04:12:23;;;;;;;1.00;1.00;;;21.60;39.20;;;;;;5112352;28;20032;-77
2024/01/26 04:14:49;;;;;;;1.33;1.15;;;21.50;39.30;;;;;;5112920;28;20050;-78
2024/01/26 04:17:15;;;;;;;1.27;0.90;;;21.50;39.30;;;;;;5112854;28;20387;-77
2024/01/26 04:19:41;;;;;;;0.90;0.90;;;21.60;39.30;;;;;;5112418;28;20035;-76
2024/01/26 04:22:08;;;;;;;2.63;0.85;;;21.60;39.30;;;;;;5076613;28;20112;-77
2024/01/26 04:24:37;;;;;;;0.70;0.70;;;21.60;39.30;;;;;;5112580;28;20036;-77
2024/01/26 04:27:03;;;;;;;0.85;0.85;;;21.70;39.40;;;;;;5112879;28;20042;-78
2024/01/26 04:29:29;;;;;;;1.30;0.90;;;21.60;39.30;;;;;;5112906;28;20474;-77
2024/01/26 04:31:55;;;;;;;1.50;1.23;;;21.60;39.20;;;;;;5112562;28;20028;-77
2024/01/26 04:34:21;;;;;;;1.67;1.00;;;21.60;39.20;;;;;;5111585;28;20502;-78
2024/01/26 04:36:48;;;;;;;1.45;1.23;;;21.70;39.30;;;;;;5116702;28;20057;-78
2024/01/26 04:39:15;;;;;;;1.80;1.10;;;21.60;39.20;;;;;;5094024;28;20032;-76
2024/01/26 04:41:42;;;;;;;1.20;1.10;;;21.60;39.10;;;;;;5112549;28;20036;-78
2024/01/26 04:44:08;;;;;;;1.05;0.90;;;21.70;39.20;;;;;;5093972;28;20046;-78
2024/01/26 04:46:35;;;;;;;0.70;0.70;;;21.60;39.00;;;;;;5112091;28;20055;-78
2024/01/26 04:49:01;;;;;;;1.15;0.80;;;21.50;39.00;;;;;;5112015;28;20028;-78
2024/01/26 04:51:27;;;;;;;0.80;0.80;;;21.50;39.10;;;;;;5076879;28;20031;-77
2024/01/26 04:53:53;;;;;;;1.40;0.93;;;21.70;39.10;;;;;;5111938;28;20343;-77
2024/01/26 04:56:21;;;;;;;1.83;1.23;;;21.60;39.10;;;;;;5112568;28;20047;-76
2024/01/26 04:58:47;;;;;;;1.52;1.10;;;21.50;39.00;;;;;;5112177;28;20062;-78
2024/01/26 05:01:13;;;;;;;1.02;0.93;;;21.60;39.00;;;;;;5112369;28;20055;-78
2024/01/26 05:03:39;;;;;;;1.27;1.02;;;21.60;39.00;;;;;;5111901;28;20035;-77
2024/01/26 05:06:06;;;;;;;1.92;0.80;;;21.50;39.00;;;;;;5111899;28;20482;-77
2024/01/26 05:08:32;;;;;;;1.20;0.75;;;21.60;39.00;;;;;;5111736;28;20038;-78
2024/01/26 05:10:58;;;;;;;0.60;0.60;;;21.50;39.10;;;;;;5093921;28;20069;-78
2024/01/26 05:13:24;;;;;;;1.52;0.88;;;21.50;39.10;;;;;;5111448;28;20416;-77
2024/01/26 05:15:51;;;;;;;0.77;0.77;;;21.20;39.00;;;;;;5111886;28;20430;-78
2024/01/26 05:18:17;;;;;;;0.70;0.68;;;21.60;39.20;;;;;;5111639;28;20031;-78
2024/01/26 05:20:43;;;;;;;0.70;0.70;;;21.50;39.30;;;;;;5111461;28;20151;-78
2024/01/26 05:23:09;;;;;;;0.68;0.68;;;21.50;39.20;;;;;;5132044;27;20114;-77
2024/01/26 05:25:35;;;;;;;0.70;0.70;;;21.60;39.20;;;;;;5114052;28;20105;-78
2024/01/26 05:28:01;;;;;;;0.88;0.68;;;21.60;39.20;;;;;;5132114;27;20180;-77
2024/01/26 05:30:27;;;;;;;3.15;0.70;;;21.60;39.10;;;;;;5132165;28;20092;-77
2024/01/26 05:32:53;;;;;;;0.85;0.82;;;21.60;39.20;;;;;;5132102;27;20058;-78
2024/01/26 05:35:20;;;;;;;1.50;0.85;;;21.60;39.10;;;;;;5132283;28;20056;-78
2024/01/26 05:37:47;;;;;;;0.90;0.80;;;21.50;39.10;;;;;;5113863;28;20030;-78
2024/01/26 05:40:13;;;;;;;0.77;0.77;;;21.70;39.20;;;;;;5113516;28;20535;-78
2024/01/26 05:42:39;;;;;;;1.67;0.95;;;21.60;39.00;;;;;;5051666;28;20052;-78
2024/01/26 05:45:06;;;;;;;0.70;0.70;;;21.60;39.10;;;;;;5048226;28;20045;-77
2024/01/26 05:47:33;;;;;;;1.10;1.00;;;21.60;39.10;;;;;;5051745;28;20045;-75
2024/01/26 05:49:59;;;;;;;2.70;1.08;;;21.60;39.10;;;;;;5035273;28;20049;-78
2024/01/26 05:52:25;;;;;;;1.23;1.00;;;21.70;39.10;;;;;;5052013;28;20049;-78
2024/01/26 05:54:51;;;;;;;1.35;0.70;;;21.50;39.00;;;;;;5051844;28;20044;-77
2024/01/26 05:57:17;;;;;;;1.08;0.98;;;21.60;39.00;;;;;;5051992;28;20041;-78
2024/01/26 05:59:43;;;;;;;0.70;0.70;;;21.50;39.00;;;;;;5011754;28;20095;-77
2024/01/26 06:02:09;;;;;;;1.25;0.82;;;21.50;39.00;;;;;;5012246;28;20042;-77
2024/01/26 06:04:36;;;;;;;0.70;0.70;;;21.50;39.00;;;;;;5012012;28;20046;-77
2024/01/26 06:07:03;;;;;;;1.58;0.90;;;21.60;39.00;;;;;;5012222;28;20401;-76
2024/01/26 06:09:29;;;;;;;1.10;1.00;;;21.50;39.10;;;;;;5011643;28;20046;-77
2024/01/26 06:11:55;;;;;;;1.30;1.20;;;21.50;39.10;;;;;;5012110;28;20053;-77
2024/01/26 06:14:21;;;;;;;0.90;0.88;;;21.50;39.10;;;;;;5042459;28;20075;-76
2024/01/26 06:16:49;;;;;;;0.70;0.70;;;21.50;39.10;;;;;;5015133;28;20544;-77
2024/01/26 06:19:15;;;;;;;1.00;0.90;;;21.50;39.10;;;;;;5014949;28;20033;-77
2024/01/26 06:21:41;;;;;;;1.00;0.90;;;21.60;39.10;;;;;;5034612;28;20072;-77
2024/01/26 06:24:07;;;;;;;1.88;1.15;;;21.60;39.10;;;;;;5051583;28;20520;-77
2024/01/26 06:26:33;;;;;;;3.10;0.90;;;21.50;39.10;;;;;;5034731;28;20052;-77
2024/01/26 06:28:59;;;;;;;2.08;0.90;;;21.50;39.10;;;;;;5034635;28;20088;-77
2024/01/26 06:31:26;;;;;;;1.45;1.10;;;21.70;39.20;;;;;;5116866;27;20043;-77
2024/01/26 06:33:52;;;;;;;2.70;0.80;;;21.80;39.20;;;;;;5114757;28;20027;-77
2024/01/26 06:36:19;;;;;;;1.38;0.98;;;21.50;39.00;;;;;;5114454;28;20028;-78
2024/01/26 06:38:45;;;;;;;1.08;0.82;;;21.70;39.10;;;;;;5114600;28;20062;-77
2024/01/26 06:41:11;;;;;;;1.23;1.10;;;21.60;39.00;;;;;;5114718;28;20155;-77
2024/01/26 06:43:37;;;;;;;0.50;0.50;;;21.50;39.00;;;;;;5111796;28;20550;-77
2024/01/26 06:46:03;;;;;;;0.90;0.90;;;21.50;39.00;;;;;;5112048;28;20048;-78
2024/01/26 06:48:29;;;;;;;1.27;0.88;;;21.50;39.00;;;;;;5111828;28;20576;-77
2024/01/26 06:50:58;;;;;;;0.85;0.80;;;21.60;39.00;;;;;;5111452;28;20028;-78
2024/01/26 06:53:24;;;;;;;0.95;0.77;;;21.60;39.00;;;;;;5111419;28;20128;-78
2024/01/26 06:55:50;;;;;;;1.10;0.90;;;21.60;39.00;;;;;;5111497;28;20061;-77
2024/01/26 06:58:17;;;;;;;1.35;0.80;;;21.50;39.00;;;;;;5110717;28;20112;-77
2024/01/26 07:00:44;;;;;;;0.73;0.73;;;21.50;39.10;;;;;;5111168;28;20088;-77
2024/01/26 07:03:11;;;;;;;1.08;0.88;;;21.50;39.10;;;;;;5094250;28;20135;-77
2024/01/26 07:05:37;;;;;;;3.47;0.93;;;21.60;39.10;;;;;;5111535;28;20042;-77
2024/01/26 07:08:03;;;;;;;0.88;0.80;;;21.50;39.00;;;;;;5111188;28;20122;-77
2024/01/26 07:10:29;;;;;;;1.23;0.80;;;21.40;39.00;;;;;;5111074;28;20069;-77
2024/01/26 07:12:55;;;;;;;1.55;0.82;;;21.40;39.00;;;;;;5110977;28;20137;-78
2024/01/26 07:15:22;;;;;;;1.25;0.70;;;21.40;39.00;;;;;;5112998;28;20556;-77
2024/01/26 07:17:49;;;;;;;3.97;0.70;;;21.40;39.00;;;;;;5113367;28;20065;-78
2024/01/26 07:20:15;;;;;;;2.65;0.80;;;21.50;39.10;;;;;;5095005;28;20028;-77
2024/01/26 07:22:42;;;;;;;0.80;0.80;;;21.50;39.00;;;;;;5113643;28;20023;-77
2024/01/26 07:25:18;;;;;;;0.75;0.75;;;21.40;39.00;;;;;;5077066;28;20052;-77
2024/01/26 07:27:45;;;;;;;1.25;0.90;;;21.50;39.00;;;;;;5094899;28;20058;-77
2024/01/26 07:30:12;;;;;;;0.93;0.90;;;21.40;39.10;;;;;;5099737;27;20031;-77
2024/01/26 07:32:38;;;;;;;1.15;0.82;;;21.40;39.00;;;;;;5134017;27;20039;-78
2024/01/26 07:35:05;;;;;;;0.73;0.73;;;21.30;39.10;;;;;;5133647;27;20034;-77
2024/01/26 07:37:31;;;;;;;0.80;0.80;;;21.40;39.00;;;;;;5133822;27;20394;-77
2024/01/26 07:39:57;;;;;;;1.10;1.00;;;21.60;39.10;;;;;;5133536;27;20037;-78
2024/01/26 07:42:23;;;;;;;0.95;0.90;;;21.40;39.00;;;;;;5081022;27;20091;-77
2024/01/26 07:44:49;;;;;;;1.08;0.93;;;21.40;39.00;;;;;;5114670;27;20423;-76
2024/01/26 07:47:15;;;;;;;2.20;1.30;;;21.50;39.00;;;;;;5133564;27;20416;-77
2024/01/26 07:49:41;;;;;;;1.42;1.15;;;21.50;39.00;;;;;;5133701;27;20034;-77
2024/01/26 07:52:08;;;;;;;1.13;0.93;;;21.70;39.00;;;;;;5133597;27;20421;-77
2024/01/26 07:54:34;;;;;;;1.45;1.08;;;21.60;38.90;;;;;;5133440;27;20118;-77
2024/01/26 07:57:00;;;;;;;1.02;0.93;;;21.70;39.00;;;;;;5133182;27;20059;-77
2024/01/26 07:59:26;;;;;;;1.00;0.90;;;21.60;38.80;;;;;;5114595;27;20887;-78
2024/01/26 08:01:52;;;;;;;0.77;0.77;;;21.70;38.80;;;;;;5133384;27;20467;-78
2024/01/26 08:04:18;;;;;;;1.10;0.73;;;21.70;38.80;;;;;;5115328;27;20399;-78
2024/01/26 08:06:44;;;;;;;1.05;0.80;;;21.70;38.70;;;;;;5133755;27;20031;-77
2024/01/26 08:09:10;;;;;;;1.27;0.88;;;21.70;38.70;;;;;;5132613;27;20044;-78
2024/01/26 08:11:37;;;;;;;1.58;0.82;;;21.90;38.70;;;;;;5133403;27;20065;-77
2024/01/26 08:14:03;;;;;;;1.02;1.00;;;21.70;38.60;;;;;;5114921;27;20443;-76
2024/01/26 08:16:29;;;;;;;1.45;0.90;;;21.70;38.50;;;;;;5131819;27;20118;-78
2024/01/26 08:18:55;;;;;;;3.00;0.98;;;21.90;38.60;;;;;;5112511;28;20046;-78
2024/01/26 08:21:22;;;;;;;1.20;0.82;;;21.70;38.50;;;;;;5112578;28;20073;-77
2024/01/26 08:23:48;;;;;;;1.40;0.90;;;21.90;38.60;;;;;;5112892;28;20023;-77
2024/01/26 08:26:14;;;;;;;0.98;0.77;;;21.90;38.50;;;;;;5112931;28;20039;-77
2024/01/26 08:28:41;;;;;;;0.80;0.80;;;21.70;38.40;;;;;;5112867;28;20043;-78
2024/01/26 08:31:08;;;;;;;0.80;0.80;;;21.80;38.30;;;;;;5112284;28;20052;-78
2024/01/26 08:33:34;;;;;;;0.80;0.80;;;21.80;38.30;;;;;;5112318;28;20511;-78
2024/01/26 08:36:00;;;;;;;2.13;1.10;;;21.80;38.30;;;;;;5077213;28;20826;-78
2024/01/26 08:38:26;;;;;;;1.05;0.90;;;21.90;38.40;;;;;;5112650;28;20055;-78
2024/01/26 08:40:52;;;;;;;1.38;1.20;;;21.90;38.40;;;;;;5111901;28;20032;-77
2024/01/26 08:43:18;;;;;;;2.08;1.00;;;21.90;38.40;;;;;;5112873;28;20031;-77
2024/01/26 08:45:44;;;;;;;1.38;1.20;;;21.90;38.30;;;;;;5094216;28;21030;-78
2024/01/26 08:48:11;;;;;;;0.68;0.68;;;21.80;38.20;;;;;;5094114;28;20024;-77
2024/01/26 08:50:38;;;;;;;1.75;0.82;;;22.00;38.30;;;;;;5112504;28;20027;-78
2024/01/26 08:53:04;;;;;;;1.38;1.20;;;21.90;38.30;;;;;;5077223;28;20032;-77
2024/01/26 08:55:30;;;;;;;2.05;1.00;;;21.90;38.30;;;;;;5112221;28;20128;-78
2024/01/26 08:57:56;;;;;;;1.10;1.00;;;21.90;38.30;;;;;;5112048;28;20035;-77
2024/01/26 09:00:23;;;;;;;1.13;1.10;;;21.80;38.10;;;;;;5112191;28;20398;-77
2024/01/26 09:02:49;;;;;;;1.35;1.25;;;21.90;38.20;;;;;;5112161;28;20054;-77
2024/01/26 09:05:15;;;;;;;2.20;1.15;;;21.80;38.10;;;;;;5093821;28;20070;-77
2024/01/26 09:07:41;;;;;;;0.90;0.90;;;21.70;38.10;;;;;;5111948;28;20024;-78
2024/01/26 09:10:07;;;;;;;1.13;1.02;;;21.80;38.10;;;;;;5093731;28;20039;-78
2024/01/26 09:12:34;;;;;;;1.35;1.20;;;21.70;38.20;;;;;;5093771;28;20039;-77
2024/01/26 09:15:00;;;;;;;1.30;1.20;;;21.80;38.20;;;;;;5093550;28;20479;-78
2024/01/26 09:17:26;;;;;;;1.00;0.90;;;21.80;38.10;;;;;;5094130;28;20167;-78
2024/01/26 09:19:52;;;;;;;2.42;0.85;;;21.80;38.20;;;;;;5111710;28;20058;-77
2024/01/26 09:22:18;;;;;;;0.98;0.98;;;21.70;38.20;;;;;;5111600;28;20028;-78
2024/01/26 09:24:44;;;;;;;0.80;0.80;;;21.70;38.10;;;;;;5111859;28;20036;-77
2024/01/26 09:27:10;;;;;;;1.48;1.30;;;21.80;38.10;;;;;;5111910;28;20118;-77
2024/01/26 09:29:37;;;;;;;1.60;1.08;;;21.70;38.10;;;;;;5093025;28;20059;-77
2024/01/26 09:32:03;;;;;;;2.00;1.10;;;21.80;38.10;;;;;;5111548;28;20032;-78
2024/01/26 09:34:29;;;;;;;1.45;1.02;;;21.80;38.10;;;;;;5111422;28;20035;-77
2024/01/26 09:36:55;;;;;;;2.03;1.25;;;21.70;38.00;;;;;;5093444;28;20031;-77
2024/01/26 09:39:22;;;;;;;1.17;1.08;;;21.80;38.00;;;;;;5093300;28;20747;-77
2024/01/26 09:41:48;;;;;;;1.45;1.30;;;21.80;38.00;;;;;;5045212;28;20051;-77
2024/01/26 09:44:14;;;;;;;1.23;1.02;;;21.80;37.90;;;;;;5048767;28;20045;-78
2024/01/26 09:46:43;;;;;;;1.60;0.80;;;21.90;38.00;;;;;;5048824;28;20090;-78
2024/01/26 09:49:10;;;;;;;4.95;1.23;;;21.90;37.90;;;;;;5048588;28;20480;-77
2024/01/26 09:51:38;;;;;;;3.05;1.33;;;21.80;37.80;;;;;;5048198;28;20033;-77
2024/01/26 09:54:06;;;;;;;1.60;1.00;;;21.90;37.90;;;;;;5048563;28;20494;-78
2024/01/26 09:56:37;;;;;;;1.17;0.93;;;21.80;37.70;;;;;;5048288;28;20072;-77
2024/01/26 09:59:04;;;;;;;1.02;0.95;;;21.80;37.80;;;;;;5048613;28;20091;-79
2024/01/26 10:01:32;;;;;;;0.88;0.82;;;21.70;37.70;;;;;;5048246;28;20033;-77
2024/01/26 10:03:58;;;;;;;1.05;1.00;;;21.70;37.70;;;;;;5048526;28;20037;-78
2024/01/26 10:06:25;;;;;;;1.13;0.75;;;21.80;37.80;;;;;;5048374;28;20045;-78
2024/01/26 10:08:51;;;;;;;0.93;0.90;;;21.70;37.70;;;;;;5031796;28;20102;-78
2024/01/26 10:11:17;;;;;;;1.00;1.00;;;21.80;37.80;;;;;;5048354;28;20482;-77
2024/01/26 10:13:43;;;;;;;0.98;0.98;;;21.60;37.70;;;;;;5047997;28;20942;-78
2024/01/26 10:16:12;;;;;;;1.50;1.10;;;21.60;37.60;;;;;;5048306;28;20095;-78
2024/01/26 10:18:43;;;;;;;1.00;0.90;;;21.80;37.70;;;;;;5064285;28;20415;-78
2024/01/26 10:21:11;;;;;;;1.60;1.27;;;21.70;37.70;;;;;;5093284;28;20391;-77
2024/01/26 10:23:37;;;;;;;1.42;1.08;;;21.60;37.60;;;;;;5076240;28;20146;-78
2024/01/26 10:26:03;;;;;;;1.15;1.00;;;21.80;37.70;;;;;;5093181;28;20039;-77
2024/01/26 10:28:29;;;;;;;1.65;1.10;;;21.70;37.70;;;;;;5111038;28;20436;-77
2024/01/26 10:30:56;;;;;;;0.80;0.80;;;21.90;37.80;;;;;;5111411;28;20028;-78
2024/01/26 10:33:23;;;;;;;1.10;1.10;;;21.70;37.60;;;;;;5112655;28;20031;-78
2024/01/26 10:35:51;;;;;;;0.55;0.55;;;21.70;37.60;;;;;;5114809;28;20800;-77
2024/01/26 10:38:17;;;;;;;0.80;0.80;;;21.70;37.60;;;;;;5096692;28;20042;-78
2024/01/26 10:40:45;;;;;;;2.30;0.80;;;21.80;37.60;;;;;;5078135;28;20044;-77
2024/01/26 10:43:15;;;;;;;1.02;0.95;;;21.70;37.60;;;;;;5114800;28;20089;-77
2024/01/26 10:45:42;;;;;;;1.77;1.15;;;21.70;37.50;;;;;;5114378;28;20023;-78
2024/01/26 10:48:10;;;;;;;0.70;0.70;;;21.90;37.60;;;;;;5114191;28;20040;-78
2024/01/26 10:50:36;;;;;;;0.88;0.80;;;21.70;37.50;;;;;;5114141;28;20081;-78
2024/01/26 10:53:07;;;;;;;2.05;0.80;;;21.70;37.50;;;;;;5114324;28;20119;-77
2024/01/26 10:55:35;;;;;;;0.70;0.70;;;21.80;37.50;;;;;;5096015;28;20035;-78
2024/01/26 10:58:02;;;;;;;2.10;1.50;;;21.70;37.50;;;;;;5114409;28;20065;-78
2024/01/26 11:00:29;;;;;;;0.90;0.90;;;21.70;37.50;;;;;;5114270;28;20074;-78
2024/01/26 11:02:55;;;;;;;1.33;0.98;;;21.60;37.40;;;;;;5114403;28;20063;-76
2024/01/26 11:05:22;;;;;;;0.77;0.77;;;21.60;37.40;;;;;;5114496;28;20036;-77
2024/01/26 11:07:49;;;;;;;0.80;0.80;;;21.70;37.50;;;;;;5114045;28;20042;-78
2024/01/26 11:10:21;;;;;;;0.75;0.70;;;21.60;37.40;;;;;;5114139;28;20030;-77
2024/01/26 11:13:02;;;;;;;0.45;0.45;;;21.50;37.40;;;;;;5114048;28;20058;-77
2024/01/26 11:15:29;;;;;;;1.33;1.10;;;21.60;37.40;;;;;;5114159;28;20069;-77
2024/01/26 11:17:56;;;;;;;1.13;1.00;;;21.60;37.40;;;;;;5114157;28;20505;-78
2024/01/26 11:20:26;;;;;;;1.05;0.95;;;21.50;37.40;;;;;;5095753;28;20027;-77
2024/01/26 11:23:18;;;;;;;1.20;1.10;;;21.60;37.40;;;;;;5113772;28;20057;-78
2024/01/26 11:25:47;;;;;;;0.55;0.55;;;21.60;37.40;;;;;;5011058;28;20398;-77
2024/01/26 11:28:26;;;;;;;0.88;0.88;;;21.60;37.30;;;;;;5010892;28;20053;-77
2024/01/26 11:30:54;;;;;;;0.60;0.60;;;21.80;37.40;;;;;;5011011;28;20046;-78
2024/01/26 11:33:23;;;;;;;1.38;1.00;;;21.60;37.30;;;;;;5011057;28;20037;-78
2024/01/26 11:36:01;;;;;;;1.67;1.48;;;21.60;37.20;;;;;;5010495;28;20041;-76
2024/01/26 11:38:28;;;;;;;1.50;1.35;;;21.70;37.30;;;;;;5011196;28;20037;-76
2024/01/26 11:41:00;;;;;;;1.42;1.25;;;21.70;37.30;;;;;;5024605;28;20038;-77
2024/01/26 11:43:27;;;;;;;1.80;1.70;;;21.70;37.20;;;;;;5013880;28;20046;-77
2024/01/26 11:45:55;;;;;;;2.50;1.33;;;21.70;37.20;;;;;;5030478;28;20045;-77
2024/01/26 11:48:21;;;;;;;1.50;1.40;;;21.60;37.10;;;;;;5030472;28;20140;-76
2024/01/26 11:50:49;;;;;;;1.60;1.50;;;21.60;37.10;;;;;;5030502;28;20410;-77
2024/01/26 11:53:16;;;;;;;2.03;1.55;;;21.60;37.10;;;;;;5030372;28;20048;-77
2024/01/26 11:55:43;;;;;;;1.85;1.50;;;21.60;37.10;;;;;;4997381;28;20045;-78
2024/01/26 11:58:11;;;;;;;1.88;1.30;;;21.60;37.20;;;;;;5030275;28;20040;-78
2024/01/26 12:00:38;;;;;;;2.53;1.63;;;21.60;37.10;;;;;;5030353;28;20037;-78
2024/01/26 12:03:08;;;;;;;1.75;1.40;;;21.60;37.20;;;;;;5105319;27;20084;-73
2024/01/26 12:05:38;;;;;;;1.92;1.52;;;21.60;37.20;;;;;;5133452;27;20031;-76
2024/01/26 12:08:06;;;;;;;1.45;1.35;;;21.60;37.20;;;;;;5133419;27;20057;-77
2024/01/26 12:10:33;;;;;;;2.78;1.42;;;21.60;37.20;;;;;;5110308;28;20048;-78
2024/01/26 12:13:00;;;;;;;1.85;1.42;;;21.40;37.10;;;;;;5110400;28;20049;-77
2024/01/26 12:15:30;;;;;;;1.80;1.45;;;21.60;37.30;;;;;;5093557;28;20052;-77
2024/01/26 12:18:00;;;;;;;1.30;1.20;;;21.40;37.20;;;;;;5093465;28;20039;-77
2024/01/26 12:20:26;;;;;;;0.90;0.90;;;21.40;37.30;;;;;;5076590;28;20039;-75
2024/01/26 12:22:56;;;;;;;1.45;1.23;;;21.40;37.30;;;;;;5110172;28;20047;-78
2024/01/26 12:25:27;;;;;;;1.67;1.55;;;21.40;37.30;;;;;;5110385;28;20051;-76
2024/01/26 12:28:02;;;;;;;2.00;1.42;;;21.40;37.30;;;;;;5092831;28;20499;-77
2024/01/26 12:30:29;;;;;;;2.10;1.65;;;21.50;37.40;;;;;;5102397;28;20032;-78
2024/01/26 12:33:06;;;;;;;1.33;1.10;;;21.40;37.20;;;;;;5089702;28;20059;-77
2024/01/26 12:35:40;;;;;;;1.20;1.10;;;21.40;37.30;;;;;;5055581;28;20565;-78
2024/01/26 12:38:10;;;;;;;1.83;1.58;;;21.40;37.30;;;;;;5072683;28;20041;-77
2024/01/26 12:40:36;;;;;;;1.42;1.17;;;21.50;37.40;;;;;;5089327;28;20620;-76
2024/01/26 12:43:03;;;;;;;0.95;0.95;;;21.70;37.10;;;;;;5089557;28;20035;-76
2024/01/26 12:45:29;;;;;;;0.80;0.80;;;21.60;37.00;;;;;;5089453;28;20471;-77